Time;durP1;ratioP1;P1;durP2;ratioP2;P2;SDS_P1;SDS_P2;PMS_P1;PMS_P2;Temp;Humidity;BMP_temperature;BMP_pressure;BME280_temperature;BME280_humidity;BME280_pressure;Samples;Min_cycle;Max_cycle;Signal;HPM_P1;HPM_P2
2022/11/22 00:01:38;;;;;;;4.47;3.40;;;;;;;;;;5088584;28;20186;-76
2022/11/22 00:04:03;;;;;;;4.33;3.90;;;;;;;;;;5094055;28;20211;-76
2022/11/22 00:06:29;;;;;;;5.03;3.93;;;;;;;;;;5086827;28;20230;-76
2022/11/22 00:08:54;;;;;;;8.00;4.27;;;;;;;;;;5087518;28;20188;-76
2022/11/22 00:11:19;;;;;;;4.80;3.53;;;;;;;;;;5086371;28;20250;-76
2022/11/22 00:13:44;;;;;;;4.23;3.43;;;;;;;;;;5085013;28;20177;-76
2022/11/22 00:16:10;;;;;;;5.30;4.10;;;;;;;;;;5083906;28;20188;-76
2022/11/22 00:18:35;;;;;;;4.37;3.77;;;;;;;;;;5090441;28;20221;-76
2022/11/22 00:21:06;;;;;;;5.77;3.57;;;;;;;;;;5093873;28;20237;-77
2022/11/22 00:23:32;;;;;;;4.70;3.30;;;;;;;;;;5088042;28;20184;-76
2022/11/22 00:25:57;;;;;;;3.47;3.17;;;;;;;;;;5086274;28;20170;-76
2022/11/22 00:28:22;;;;;;;4.03;3.10;;;;;;;;;;5086821;28;20203;-76
2022/11/22 00:30:47;;;;;;;4.60;3.00;;;;;;;;;;5083367;28;20179;-77
2022/11/22 00:33:12;;;;;;;3.53;2.87;;;;;;;;;;5085684;28;20177;-77
2022/11/22 00:35:38;;;;;;;4.13;3.07;;;;;;;;;;5082848;28;20177;-76
2022/11/22 00:38:03;;;;;;;2.90;2.53;;;;;;;;;;5092361;28;20231;-76
2022/11/22 00:40:28;;;;;;;4.93;2.83;;;;;;;;;;5086659;28;20190;-76
2022/11/22 00:42:53;;;;;;;5.90;2.77;;;;;;;;;;5091085;28;20270;-76
2022/11/22 00:45:18;;;;;;;3.97;2.53;;;;;;;;;;5081760;28;20177;-76
2022/11/22 00:47:43;;;;;;;2.17;1.70;;;;;;;;;;5081727;28;20178;-76
2022/11/22 00:50:09;;;;;;;4.07;1.53;;;;;;;;;;5084667;28;20173;-77
2022/11/22 00:52:34;;;;;;;3.90;2.00;;;;;;;;;;5079647;28;20432;-76
2022/11/22 00:54:59;;;;;;;3.43;1.83;;;;;;;;;;5089997;28;20220;-76
2022/11/22 00:57:24;;;;;;;2.30;1.63;;;;;;;;;;5087955;28;20229;-76
2022/11/22 00:59:49;;;;;;;4.83;1.43;;;;;;;;;;5083457;28;20212;-76
2022/11/22 01:02:15;;;;;;;3.93;1.60;;;;;;;;;;5083426;28;20178;-76
2022/11/22 01:04:40;;;;;;;3.53;1.60;;;;;;;;;;5081130;28;20179;-76
2022/11/22 01:07:05;;;;;;;3.57;1.80;;;;;;;;;;5082395;28;20185;-76
2022/11/22 01:09:30;;;;;;;3.37;1.60;;;;;;;;;;5088282;28;20202;-76
2022/11/22 01:11:55;;;;;;;3.60;1.50;;;;;;;;;;5086953;28;20173;-76
2022/11/22 01:14:21;;;;;;;4.47;1.57;;;;;;;;;;5088220;28;20185;-76
2022/11/22 01:16:46;;;;;;;2.43;1.47;;;;;;;;;;5092359;28;20179;-77
2022/11/22 01:19:11;;;;;;;2.33;1.30;;;;;;;;;;5078476;28;20219;-76
2022/11/22 01:21:37;;;;;;;2.03;1.60;;;;;;;;;;5082632;28;20270;-76
2022/11/22 01:24:02;;;;;;;3.07;1.50;;;;;;;;;;5086809;28;20273;-76
2022/11/22 01:26:27;;;;;;;2.73;1.10;;;;;;;;;;5087948;28;20197;-76
2022/11/22 01:28:52;;;;;;;4.07;1.90;;;;;;;;;;5089624;28;20212;-76
2022/11/22 01:31:18;;;;;;;2.93;1.50;;;;;;;;;;5089405;28;20191;-77
2022/11/22 01:33:43;;;;;;;1.90;1.20;;;;;;;;;;5076984;28;20188;-76
2022/11/22 01:36:08;;;;;;;5.80;2.07;;;;;;;;;;5092115;28;20191;-76
2022/11/22 01:38:33;;;;;;;2.40;1.57;;;;;;;;;;5078080;28;20225;-76
2022/11/22 01:40:58;;;;;;;2.90;1.40;;;;;;;;;;5078996;28;20173;-76
2022/11/22 01:43:25;;;;;;;7.43;2.07;;;;;;;;;;5083358;28;20206;-77
2022/11/22 01:45:54;;;;;;;5.03;2.10;;;;;;;;;;5096992;28;20184;-77
2022/11/22 01:48:20;;;;;;;4.17;1.93;;;;;;;;;;5100902;28;20265;-76
2022/11/22 01:50:47;;;;;;;4.93;1.87;;;;;;;;;;5084984;28;20264;-76
2022/11/22 01:53:14;;;;;;;2.90;1.80;;;;;;;;;;5086050;28;20182;-76
2022/11/22 01:55:40;;;;;;;4.83;1.80;;;;;;;;;;5096967;28;20186;-76
2022/11/22 01:58:06;;;;;;;4.17;1.60;;;;;;;;;;5087194;28;20233;-76
2022/11/22 02:00:31;;;;;;;7.70;2.03;;;;;;;;;;5094397;28;20225;-76
2022/11/22 02:02:58;;;;;;;6.03;1.93;;;;;;;;;;5093057;28;20197;-77
2022/11/22 02:05:26;;;;;;;4.47;1.93;;;;;;;;;;5084889;28;20178;-77
2022/11/22 02:08:10;;;;;;;3.33;1.60;;;;;;;;;;5087165;28;20184;-76
2022/11/22 02:10:37;;;;;;;7.73;1.97;;;;;;;;;;5076310;28;20557;-76
2022/11/22 02:13:03;;;;;;;4.03;1.70;;;;;;;;;;5087526;28;20209;-76
2022/11/22 02:15:29;;;;;;;5.63;2.17;;;;;;;;;;5088182;28;20213;-76
2022/11/22 02:17:57;;;;;;;5.17;2.03;;;;;;;;;;5083504;28;20174;-76
2022/11/22 02:20:22;;;;;;;6.00;2.40;;;;;;;;;;5079649;28;20195;-76
2022/11/22 02:23:08;;;;;;;8.20;1.90;;;;;;;;;;5090047;28;20222;-76
2022/11/22 02:25:36;;;;;;;4.47;2.00;;;;;;;;;;5077305;28;20209;-77
2022/11/22 02:28:04;;;;;;;4.17;1.50;;;;;;;;;;5081203;28;20175;-77
2022/11/22 02:30:30;;;;;;;7.73;1.83;;;;;;;;;;5085506;28;20185;-76
2022/11/22 02:32:55;;;;;;;3.87;1.50;;;;;;;;;;5085200;28;20175;-76
2022/11/22 02:35:25;;;;;;;5.47;1.90;;;;;;;;;;5098212;28;20314;-76
2022/11/22 02:37:51;;;;;;;10.57;2.23;;;;;;;;;;5081407;28;20270;-76
2022/11/22 02:40:17;;;;;;;12.70;2.90;;;;;;;;;;5084158;28;20276;-76
2022/11/22 02:42:44;;;;;;;6.07;2.40;;;;;;;;;;5084591;28;20192;-76
2022/11/22 02:45:09;;;;;;;5.93;1.67;;;;;;;;;;5084787;28;20201;-76
2022/11/22 02:47:34;;;;;;;5.70;2.00;;;;;;;;;;5087103;28;20169;-76
2022/11/22 02:50:00;;;;;;;4.87;1.43;;;;;;;;;;5090872;28;20273;-76
2022/11/22 02:52:25;;;;;;;4.83;2.23;;;;;;;;;;5080211;28;20273;-76
2022/11/22 02:54:50;;;;;;;7.00;1.90;;;;;;;;;;5088444;28;20174;-76
2022/11/22 02:57:15;;;;;;;6.30;2.07;;;;;;;;;;5078394;28;20231;-77
2022/11/22 02:59:40;;;;;;;7.20;2.10;;;;;;;;;;5081404;28;20272;-76
2022/11/22 03:02:05;;;;;;;5.40;2.00;;;;;;;;;;5085215;28;20254;-77
2022/11/22 03:04:31;;;;;;;6.53;2.10;;;;;;;;;;5101465;28;20180;-77
2022/11/22 03:06:58;;;;;;;5.07;1.57;;;;;;;;;;5093446;28;20178;-76
2022/11/22 03:09:23;;;;;;;7.60;2.27;;;;;;;;;;5089016;28;20193;-76
2022/11/22 03:11:49;;;;;;;8.00;2.43;;;;;;;;;;5090433;28;20170;-76
2022/11/22 03:14:14;;;;;;;6.50;2.10;;;;;;;;;;5084192;28;20179;-76
2022/11/22 03:16:40;;;;;;;8.23;2.33;;;;;;;;;;5087519;28;20179;-76
2022/11/22 03:19:05;;;;;;;6.73;2.30;;;;;;;;;;5085421;28;20213;-77
2022/11/22 03:21:31;;;;;;;7.40;2.00;;;;;;;;;;5084431;28;20240;-76
2022/11/22 03:23:56;;;;;;;7.93;2.20;;;;;;;;;;5087148;28;20172;-77
2022/11/22 03:26:21;;;;;;;5.23;1.77;;;;;;;;;;5093335;28;20176;-77
2022/11/22 03:28:46;;;;;;;4.40;1.90;;;;;;;;;;5084533;28;20209;-77
2022/11/22 03:31:12;;;;;;;6.60;2.00;;;;;;;;;;5087730;28;20187;-76
2022/11/22 03:33:37;;;;;;;7.90;2.80;;;;;;;;;;5077847;28;20175;-76
2022/11/22 03:36:02;;;;;;;6.77;1.70;;;;;;;;;;5087114;28;20188;-77
2022/11/22 03:38:28;;;;;;;6.70;1.93;;;;;;;;;;5084248;28;20461;-76
2022/11/22 03:40:53;;;;;;;6.40;2.70;;;;;;;;;;5076827;28;20551;-76
2022/11/22 03:43:19;;;;;;;5.03;2.40;;;;;;;;;;5090672;28;20180;-77
2022/11/22 03:45:44;;;;;;;7.53;2.07;;;;;;;;;;5089623;28;20186;-76
2022/11/22 03:48:10;;;;;;;5.53;2.07;;;;;;;;;;5077428;28;20177;-76
2022/11/22 03:50:35;;;;;;;8.97;2.00;;;;;;;;;;5078731;28;20186;-76
2022/11/22 03:53:01;;;;;;;5.70;2.33;;;;;;;;;;5088454;28;20227;-76
2022/11/22 03:55:26;;;;;;;10.13;1.73;;;;;;;;;;5084283;28;20172;-76
2022/11/22 03:57:51;;;;;;;6.50;1.87;;;;;;;;;;5091528;28;20223;-76
2022/11/22 04:00:16;;;;;;;6.73;2.20;;;;;;;;;;5081494;28;20208;-76
2022/11/22 04:02:42;;;;;;;7.17;2.37;;;;;;;;;;5082973;28;20170;-76
2022/11/22 04:05:07;;;;;;;9.50;2.20;;;;;;;;;;5089420;28;20181;-76
2022/11/22 04:07:32;;;;;;;8.97;2.23;;;;;;;;;;5085023;28;21593;-77
2022/11/22 04:09:57;;;;;;;5.33;2.07;;;;;;;;;;5092483;28;20261;-76
2022/11/22 04:12:22;;;;;;;6.90;2.37;;;;;;;;;;5084170;28;20170;-76
2022/11/22 04:15:06;;;;;;;7.93;3.20;;;;;;;;;;5080757;28;20170;-76
2022/11/22 04:17:44;;;;;;;7.20;2.23;;;;;;;;;;5084948;28;20185;-76
2022/11/22 04:22:57;;;;;;;6.37;2.10;;;;;;;;;;5084912;28;20203;-77
2022/11/22 04:25:24;;;;;;;8.07;2.20;;;;;;;;;;5079273;28;20169;-76
2022/11/22 04:27:49;;;;;;;4.80;2.00;;;;;;;;;;5090866;28;20209;-76
2022/11/22 04:30:14;;;;;;;8.77;2.63;;;;;;;;;;5085886;28;20214;-76
2022/11/22 04:32:45;;;;;;;8.23;2.43;;;;;;;;;;5086911;28;20178;-76
2022/11/22 04:35:15;;;;;;;7.10;2.00;;;;;;;;;;5100020;28;20198;-76
2022/11/22 04:37:41;;;;;;;8.80;2.43;;;;;;;;;;5082082;28;20185;-77
2022/11/22 04:40:07;;;;;;;3.77;1.70;;;;;;;;;;5085591;28;20298;-76
2022/11/22 04:45:16;;;;;;;10.40;2.27;;;;;;;;;;5083575;28;20250;-76
2022/11/22 04:47:59;;;;;;;8.43;1.90;;;;;;;;;;5091196;28;20170;-76
2022/11/22 04:53:09;;;;;;;9.10;2.10;;;;;;;;;;5080608;28;20201;-77
2022/11/22 04:55:35;;;;;;;9.53;2.77;;;;;;;;;;5100198;28;20178;-77
2022/11/22 04:58:00;;;;;;;6.77;2.33;;;;;;;;;;5087849;28;20254;-77
2022/11/22 05:00:29;;;;;;;6.90;3.20;;;;;;;;;;5088808;28;20255;-76
2022/11/22 05:02:55;;;;;;;7.87;1.73;;;;;;;;;;5100149;27;20176;-76
2022/11/22 05:05:20;;;;;;;14.10;2.83;;;;;;;;;;5092278;28;20174;-76
2022/11/22 05:07:45;;;;;;;7.87;2.70;;;;;;;;;;5084901;28;20228;-76
2022/11/22 05:10:10;;;;;;;9.57;2.30;;;;;;;;;;5089238;28;20197;-77
2022/11/22 05:12:36;;;;;;;4.30;1.70;;;;;;;;;;5088089;28;20174;-77
2022/11/22 05:15:01;;;;;;;4.73;1.93;;;;;;;;;;5084048;28;20177;-76
2022/11/22 05:17:26;;;;;;;4.27;1.13;;;;;;;;;;5074128;28;20222;-77
2022/11/22 05:19:52;;;;;;;4.27;1.20;;;;;;;;;;5080801;28;20197;-76
2022/11/22 05:23:52;;;;;;;5.43;1.80;;;;;;;;;;5086674;28;20208;-76
2022/11/22 05:25:02;;;;;;;3.03;1.20;;;;;;;;;;5088299;28;20169;-76
2022/11/22 05:27:27;;;;;;;9.67;2.27;;;;;;;;;;5082621;28;20169;-76
2022/11/22 05:29:52;;;;;;;4.70;1.47;;;;;;;;;;5083137;28;20187;-76
2022/11/22 05:32:18;;;;;;;8.73;1.70;;;;;;;;;;5086259;28;20174;-76
2022/11/22 05:34:43;;;;;;;4.13;2.23;;;;;;;;;;5089312;28;20175;-76
2022/11/22 05:37:08;;;;;;;5.33;1.80;;;;;;;;;;5082895;28;20181;-76
2022/11/22 05:39:33;;;;;;;5.00;1.77;;;;;;;;;;5080944;28;20338;-76
2022/11/22 05:41:58;;;;;;;8.40;2.53;;;;;;;;;;5084055;28;20177;-77
2022/11/22 05:44:24;;;;;;;5.60;1.80;;;;;;;;;;5080302;28;20196;-76
2022/11/22 05:46:49;;;;;;;5.90;2.17;;;;;;;;;;5089030;28;20172;-76
2022/11/22 05:49:14;;;;;;;5.00;2.07;;;;;;;;;;5086039;28;20189;-76
2022/11/22 05:51:39;;;;;;;5.03;1.77;;;;;;;;;;5100493;28;20181;-76
2022/11/22 05:54:04;;;;;;;8.20;3.00;;;;;;;;;;5080636;28;20184;-76
2022/11/22 05:56:30;;;;;;;3.67;1.87;;;;;;;;;;5088351;28;20224;-76
2022/11/22 05:58:55;;;;;;;8.43;2.20;;;;;;;;;;5085221;28;20290;-76
2022/11/22 06:01:21;;;;;;;4.63;1.50;;;;;;;;;;5079293;28;20181;-76
2022/11/22 06:03:47;;;;;;;6.93;1.40;;;;;;;;;;5084293;28;20184;-76
2022/11/22 06:06:13;;;;;;;6.90;1.90;;;;;;;;;;5090419;28;20176;-76
2022/11/22 06:08:43;;;;;;;6.60;1.87;;;;;;;;;;5079761;28;20177;-79
2022/11/22 06:11:15;;;;;;;4.90;2.27;;;;;;;;;;5081943;28;20258;-79
2022/11/22 06:13:42;;;;;;;2.47;1.60;;;;;;;;;;5080618;28;20218;-79
2022/11/22 06:16:08;;;;;;;3.83;2.00;;;;;;;;;;5083747;28;20239;-79
2022/11/22 06:18:34;;;;;;;9.13;3.33;;;;;;;;;;5088000;28;20196;-79
2022/11/22 06:21:00;;;;;;;4.23;1.57;;;;;;;;;;5080968;28;20223;-79
2022/11/22 06:23:25;;;;;;;5.37;1.80;;;;;;;;;;5083366;28;20272;-79
2022/11/22 06:26:05;;;;;;;8.53;2.00;;;;;;;;;;5087296;28;20267;-79
2022/11/22 06:28:31;;;;;;;7.33;2.17;;;;;;;;;;5080181;28;20174;-78
2022/11/22 06:31:16;;;;;;;4.57;2.17;;;;;;;;;;5083825;28;20169;-79
2022/11/22 06:33:41;;;;;;;5.47;3.23;;;;;;;;;;5087565;28;20188;-79
2022/11/22 06:36:08;;;;;;;4.37;2.13;;;;;;;;;;5087484;28;20262;-79
2022/11/22 06:38:33;;;;;;;4.07;1.93;;;;;;;;;;5085606;28;20211;-78
2022/11/22 06:41:02;;;;;;;8.70;2.33;;;;;;;;;;5090347;28;20173;-79
2022/11/22 06:43:28;;;;;;;3.63;1.57;;;;;;;;;;5090151;28;20156;-78
2022/11/22 06:45:54;;;;;;;12.00;1.97;;;;;;;;;;5089567;28;20177;-79
2022/11/22 06:48:19;;;;;;;6.93;2.73;;;;;;;;;;5092874;28;20176;-78
2022/11/22 06:50:44;;;;;;;3.63;1.80;;;;;;;;;;5085748;28;20179;-79
2022/11/22 06:53:10;;;;;;;7.00;2.13;;;;;;;;;;5090164;28;20187;-79
2022/11/22 06:55:35;;;;;;;3.07;2.17;;;;;;;;;;5101210;28;20239;-79
2022/11/22 06:58:00;;;;;;;9.10;2.53;;;;;;;;;;5089965;28;20217;-79
2022/11/22 07:00:26;;;;;;;5.90;3.00;;;;;;;;;;5089742;28;20615;-79
2022/11/22 07:02:51;;;;;;;5.03;1.63;;;;;;;;;;5089110;28;20176;-79
2022/11/22 07:05:16;;;;;;;6.17;2.07;;;;;;;;;;5089173;28;20169;-79
2022/11/22 07:07:41;;;;;;;8.17;2.63;;;;;;;;;;5089770;28;20358;-79
2022/11/22 07:10:07;;;;;;;8.47;2.67;;;;;;;;;;5088196;28;20261;-79
2022/11/22 07:12:32;;;;;;;13.93;3.00;;;;;;;;;;5087133;28;20219;-79
2022/11/22 07:14:57;;;;;;;7.53;2.47;;;;;;;;;;5078217;28;20223;-79
2022/11/22 07:17:22;;;;;;;4.90;3.00;;;;;;;;;;5088135;28;20208;-79
2022/11/22 07:19:47;;;;;;;5.33;1.67;;;;;;;;;;5084120;28;20241;-79
2022/11/22 07:22:13;;;;;;;8.27;2.40;;;;;;;;;;5084861;28;20175;-79
2022/11/22 07:24:38;;;;;;;6.60;2.00;;;;;;;;;;5089713;28;20169;-79
2022/11/22 07:27:03;;;;;;;4.90;2.07;;;;;;;;;;5092694;28;20173;-79
2022/11/22 07:29:28;;;;;;;5.93;3.10;;;;;;;;;;5084755;28;20220;-79
2022/11/22 07:31:53;;;;;;;3.13;2.00;;;;;;;;;;5083010;28;20195;-79
2022/11/22 07:34:19;;;;;;;4.50;2.20;;;;;;;;;;5091730;28;20190;-79
2022/11/22 07:36:44;;;;;;;5.67;2.97;;;;;;;;;;5086410;28;20174;-77
2022/11/22 07:39:09;;;;;;;5.50;2.20;;;;;;;;;;5083204;28;20276;-79
2022/11/22 07:41:35;;;;;;;13.93;2.93;;;;;;;;;;5082608;28;20718;-79
2022/11/22 07:44:00;;;;;;;6.07;2.20;;;;;;;;;;5086027;28;20252;-79
2022/11/22 07:46:30;;;;;;;4.77;1.97;;;;;;;;;;5086443;28;20182;-79
2022/11/22 07:48:56;;;;;;;5.23;2.73;;;;;;;;;;5084641;28;20234;-79
2022/11/22 07:51:21;;;;;;;7.20;2.30;;;;;;;;;;5088304;28;20188;-79
2022/11/22 07:53:46;;;;;;;4.67;1.50;;;;;;;;;;5079942;28;20209;-79
2022/11/22 07:56:12;;;;;;;6.70;2.00;;;;;;;;;;5087247;28;20169;-79
2022/11/22 07:58:37;;;;;;;10.33;1.97;;;;;;;;;;5083954;28;20291;-79
2022/11/22 08:01:06;;;;;;;3.27;1.60;;;;;;;;;;5085706;28;20212;-79
2022/11/22 08:03:32;;;;;;;4.20;1.60;;;;;;;;;;5086170;28;20308;-79
2022/11/22 08:05:58;;;;;;;5.33;1.90;;;;;;;;;;5091344;28;21034;-79
2022/11/22 08:08:23;;;;;;;3.57;1.77;;;;;;;;;;5090916;28;20184;-79
2022/11/22 08:10:48;;;;;;;6.80;2.03;;;;;;;;;;5090653;28;20176;-79
2022/11/22 08:13:13;;;;;;;7.00;3.10;;;;;;;;;;5088707;28;20261;-79
2022/11/22 08:15:39;;;;;;;5.43;1.80;;;;;;;;;;5087576;28;20223;-79
2022/11/22 08:18:04;;;;;;;8.47;1.90;;;;;;;;;;5085901;28;20185;-79
2022/11/22 08:20:29;;;;;;;6.80;1.53;;;;;;;;;;5085036;28;20201;-79
2022/11/22 08:22:54;;;;;;;5.90;1.40;;;;;;;;;;5100546;28;20170;-79
2022/11/22 08:25:20;;;;;;;3.70;1.40;;;;;;;;;;5084257;28;20286;-79
2022/11/22 08:27:45;;;;;;;2.60;1.93;;;;;;;;;;5079200;28;20166;-79
2022/11/22 08:30:10;;;;;;;3.90;1.70;;;;;;;;;;5102504;27;20182;-79
2022/11/22 08:32:35;;;;;;;12.13;5.30;;;;;;;;;;5088718;28;20169;-79
2022/11/22 08:35:01;;;;;;;9.57;3.73;;;;;;;;;;5086733;28;20214;-79
2022/11/22 08:37:26;;;;;;;3.80;1.80;;;;;;;;;;5089734;28;20181;-79
2022/11/22 08:39:51;;;;;;;8.53;3.80;;;;;;;;;;5087354;28;20300;-79
2022/11/22 08:42:17;;;;;;;28.67;15.53;;;;;;;;;;5083486;28;20180;-79
2022/11/22 08:44:42;;;;;;;12.27;5.57;;;;;;;;;;5084796;28;20176;-79
2022/11/22 08:47:07;;;;;;;23.43;8.83;;;;;;;;;;5095486;28;20176;-79
2022/11/22 08:49:32;;;;;;;198.23;94.33;;;;;;;;;;5093146;28;20209;-79
2022/11/22 08:51:57;;;;;;;12.33;7.03;;;;;;;;;;5089176;28;20190;-79
2022/11/22 08:54:23;;;;;;;30.77;15.37;;;;;;;;;;5079809;28;20176;-79
2022/11/22 08:56:48;;;;;;;13.97;7.50;;;;;;;;;;5097671;27;20234;-79
2022/11/22 08:59:13;;;;;;;5.83;2.93;;;;;;;;;;5088536;28;20453;-79
2022/11/22 09:01:38;;;;;;;3.23;1.63;;;;;;;;;;5082175;28;20182;-79
2022/11/22 09:04:03;;;;;;;5.20;1.90;;;;;;;;;;5090853;28;20181;-79
2022/11/22 09:06:30;;;;;;;3.50;1.50;;;;;;;;;;5089403;28;20257;-79
2022/11/22 09:08:55;;;;;;;3.37;2.47;;;;;;;;;;5090426;28;20179;-79
2022/11/22 09:11:21;;;;;;;4.17;2.00;;;;;;;;;;5091030;28;20177;-79
2022/11/22 09:13:46;;;;;;;5.00;1.97;;;;;;;;;;5096754;28;20185;-79
2022/11/22 09:16:12;;;;;;;6.13;2.67;;;;;;;;;;5085217;28;20189;-79
2022/11/22 09:18:38;;;;;;;4.73;2.53;;;;;;;;;;5081878;28;20205;-79
2022/11/22 09:21:08;;;;;;;3.37;1.90;;;;;;;;;;5089274;28;20174;-79
2022/11/22 09:23:33;;;;;;;1.73;1.30;;;;;;;;;;5083577;28;20175;-79
2022/11/22 09:26:05;;;;;;;3.77;1.63;;;;;;;;;;5088914;28;20237;-79
2022/11/22 09:28:30;;;;;;;4.17;1.73;;;;;;;;;;5084783;28;20181;-79
2022/11/22 09:31:06;;;;;;;3.43;1.90;;;;;;;;;;5076568;28;20323;-80
2022/11/22 09:33:33;;;;;;;2.70;1.40;;;;;;;;;;5075231;28;20176;-79
2022/11/22 09:36:02;;;;;;;4.00;2.20;;;;;;;;;;5082645;28;20177;-79
2022/11/22 09:38:28;;;;;;;1.77;1.30;;;;;;;;;;5084565;28;20169;-79
2022/11/22 09:40:54;;;;;;;4.20;2.00;;;;;;;;;;5080463;28;20166;-79
2022/11/22 09:43:19;;;;;;;3.53;1.43;;;;;;;;;;5087559;28;20176;-79
2022/11/22 09:45:44;;;;;;;5.10;1.60;;;;;;;;;;5077905;28;20238;-79
2022/11/22 09:48:15;;;;;;;2.77;1.40;;;;;;;;;;5078891;28;20300;-79
2022/11/22 09:50:51;;;;;;;5.83;1.60;;;;;;;;;;5088141;28;20535;-79
2022/11/22 09:53:21;;;;;;;2.77;1.43;;;;;;;;;;5105668;27;20249;-79
2022/11/22 09:55:48;;;;;;;2.57;1.17;;;;;;;;;;5081030;28;20254;-79
2022/11/22 09:58:23;;;;;;;1.53;1.30;;;;;;;;;;5104594;28;20234;-79
2022/11/22 10:00:48;;;;;;;2.70;1.00;;;;;;;;;;5107127;27;20199;-79
2022/11/22 10:03:18;;;;;;;3.03;1.30;;;;;;;;;;5079576;28;20264;-79
2022/11/22 10:05:51;;;;;;;3.50;1.30;;;;;;;;;;5084751;28;20235;-79
2022/11/22 10:08:19;;;;;;;4.80;2.07;;;;;;;;;;5088814;28;20202;-79
2022/11/22 10:10:44;;;;;;;3.63;1.50;;;;;;;;;;5086850;28;20179;-79
2022/11/22 10:13:24;;;;;;;3.77;1.73;;;;;;;;;;5089113;28;20262;-80
2022/11/22 10:15:54;;;;;;;4.47;1.87;;;;;;;;;;5095614;27;20229;-80
2022/11/22 10:18:19;;;;;;;3.10;1.50;;;;;;;;;;5086230;28;20165;-80
2022/11/22 10:20:44;;;;;;;2.63;1.77;;;;;;;;;;5092945;28;20197;-79
2022/11/22 10:23:15;;;;;;;3.70;1.27;;;;;;;;;;5088327;28;20176;-79
2022/11/22 10:25:44;;;;;;;2.90;1.90;;;;;;;;;;5079326;28;20259;-79
2022/11/22 10:28:16;;;;;;;3.90;1.33;;;;;;;;;;5085814;28;20251;-79
2022/11/22 10:30:42;;;;;;;8.47;3.40;;;;;;;;;;5086430;28;20177;-80
2022/11/22 10:33:17;;;;;;;2.97;1.73;;;;;;;;;;5098758;28;20307;-79
2022/11/22 10:35:57;;;;;;;2.77;1.33;;;;;;;;;;5102439;28;20179;-79
2022/11/22 10:38:25;;;;;;;3.90;1.80;;;;;;;;;;5098826;28;20188;-79
2022/11/22 10:41:09;;;;;;;1.80;1.57;;;;;;;;;;5088849;28;20167;-79
2022/11/22 10:43:54;;;;;;;2.93;1.70;;;;;;;;;;5102624;28;20192;-79
2022/11/22 10:46:43;;;;;;;2.30;1.60;;;;;;;;;;5070920;28;20276;-79
2022/11/22 10:49:23;;;;;;;2.63;1.40;;;;;;;;;;5086842;28;20268;-79
2022/11/22 10:51:51;;;;;;;5.33;1.63;;;;;;;;;;5104046;28;20201;-79
2022/11/22 10:54:24;;;;;;;4.47;2.10;;;;;;;;;;5087423;28;20180;-79
2022/11/22 10:57:07;;;;;;;14.43;3.63;;;;;;;;;;5086831;28;20247;-79
2022/11/22 10:59:38;;;;;;;3.47;1.77;;;;;;;;;;5102052;28;20212;-79
2022/11/22 11:02:22;;;;;;;7.20;3.00;;;;;;;;;;5085776;28;20197;-79
2022/11/22 11:04:48;;;;;;;4.47;1.27;;;;;;;;;;5085177;28;20224;-80
2022/11/22 11:07:16;;;;;;;6.53;2.30;;;;;;;;;;5080842;28;20175;-80
2022/11/22 11:09:55;;;;;;;2.87;1.30;;;;;;;;;;5090257;28;20182;-79
2022/11/22 11:12:23;;;;;;;4.70;1.73;;;;;;;;;;5101310;28;20182;-79
2022/11/22 11:14:50;;;;;;;4.53;1.60;;;;;;;;;;5086863;28;20179;-79
2022/11/22 11:17:17;;;;;;;1.67;1.17;;;;;;;;;;5092130;28;20184;-79
2022/11/22 11:19:43;;;;;;;4.57;1.50;;;;;;;;;;5083448;28;20200;-79
2022/11/22 11:22:08;;;;;;;6.53;1.77;;;;;;;;;;5090033;28;20178;-79
2022/11/22 11:24:36;;;;;;;2.53;1.60;;;;;;;;;;5085513;28;20164;-79
2022/11/22 11:27:02;;;;;;;3.53;1.70;;;;;;;;;;5086176;28;20212;-79
2022/11/22 11:29:32;;;;;;;7.60;1.77;;;;;;;;;;5093299;28;20208;-79
2022/11/22 11:32:06;;;;;;;4.00;1.50;;;;;;;;;;5106346;28;20196;-80
2022/11/22 11:34:32;;;;;;;4.30;1.93;;;;;;;;;;5091767;28;20178;-79
2022/11/22 11:36:58;;;;;;;7.60;2.27;;;;;;;;;;5094504;28;20188;-80
2022/11/22 11:39:27;;;;;;;4.93;1.57;;;;;;;;;;5094831;28;20263;-79
2022/11/22 11:41:53;;;;;;;5.30;1.90;;;;;;;;;;5092657;28;20179;-80
2022/11/22 11:44:30;;;;;;;3.43;1.80;;;;;;;;;;5093334;28;20173;-79
2022/11/22 11:46:56;;;;;;;3.20;1.83;;;;;;;;;;5105067;27;20173;-79
2022/11/22 11:49:23;;;;;;;3.10;1.10;;;;;;;;;;5093131;28;20184;-79
2022/11/22 11:51:52;;;;;;;4.57;2.10;;;;;;;;;;5092025;28;20181;-79
2022/11/22 11:54:25;;;;;;;3.27;1.40;;;;;;;;;;5091198;28;20187;-79
2022/11/22 11:56:58;;;;;;;4.17;1.00;;;;;;;;;;5084106;28;20227;-79
2022/11/22 11:59:27;;;;;;;2.97;1.50;;;;;;;;;;5103619;27;20202;-80
2022/11/22 12:01:55;;;;;;;4.60;1.30;;;;;;;;;;5091227;28;20175;-80
2022/11/22 12:04:23;;;;;;;3.77;1.53;;;;;;;;;;5093283;28;20176;-79
2022/11/22 12:06:52;;;;;;;5.77;2.00;;;;;;;;;;5092973;28;20242;-79
2022/11/22 12:09:34;;;;;;;2.93;1.50;;;;;;;;;;5088918;28;20228;-79
2022/11/22 12:12:04;;;;;;;4.33;1.53;;;;;;;;;;5088746;28;20272;-79
2022/11/22 12:14:29;;;;;;;7.17;2.83;;;;;;;;;;5089191;28;20169;-79
2022/11/22 12:16:56;;;;;;;3.23;1.70;;;;;;;;;;5081586;28;20181;-79
2022/11/22 12:19:22;;;;;;;4.50;1.80;;;;;;;;;;5088576;28;20204;-79
2022/11/22 12:21:50;;;;;;;3.83;2.13;;;;;;;;;;5088800;28;20262;-80
2022/11/22 12:24:22;;;;;;;2.70;2.47;;;;;;;;;;5105483;27;20175;-79
2022/11/22 12:26:47;;;;;;;6.77;1.27;;;;;;;;;;5087861;28;20252;-79
2022/11/22 12:29:13;;;;;;;4.57;1.40;;;;;;;;;;5089661;28;20279;-79
2022/11/22 12:31:41;;;;;;;2.80;1.30;;;;;;;;;;5085123;28;20201;-79
2022/11/22 12:34:13;;;;;;;3.03;1.33;;;;;;;;;;5089073;28;20244;-79
2022/11/22 12:36:38;;;;;;;5.23;1.93;;;;;;;;;;5092042;28;20179;-79
2022/11/22 12:39:04;;;;;;;5.03;1.40;;;;;;;;;;5086831;28;20199;-79
2022/11/22 12:41:30;;;;;;;4.30;1.10;;;;;;;;;;5092503;28;20175;-79
2022/11/22 12:44:09;;;;;;;8.53;1.80;;;;;;;;;;5086911;28;20209;-79
2022/11/22 12:46:34;;;;;;;4.03;1.93;;;;;;;;;;5085865;28;20202;-79
2022/11/22 12:49:05;;;;;;;3.37;1.53;;;;;;;;;;5088432;28;20177;-79
2022/11/22 12:51:34;;;;;;;5.40;2.00;;;;;;;;;;5079605;28;20179;-79
2022/11/22 12:54:00;;;;;;;2.30;1.20;;;;;;;;;;5088977;28;20181;-79
2022/11/22 12:56:43;;;;;;;2.43;1.53;;;;;;;;;;5086648;28;20184;-79
2022/11/22 12:59:23;;;;;;;3.83;1.50;;;;;;;;;;5091697;28;20214;-78
2022/11/22 13:01:57;;;;;;;3.43;1.20;;;;;;;;;;5093975;27;20189;-79
2022/11/22 13:04:31;;;;;;;3.40;1.60;;;;;;;;;;5083089;28;20210;-79
2022/11/22 13:07:12;;;;;;;4.17;1.90;;;;;;;;;;5081069;28;20183;-79
2022/11/22 13:09:41;;;;;;;2.73;1.53;;;;;;;;;;5088424;28;20262;-78
2022/11/22 13:12:09;;;;;;;2.90;1.10;;;;;;;;;;5087643;28;20192;-79
2022/11/22 13:14:44;;;;;;;2.80;1.33;;;;;;;;;;5085020;28;20172;-79
2022/11/22 13:17:11;;;;;;;3.47;1.80;;;;;;;;;;5025961;28;20235;-79
2022/11/22 13:19:43;;;;;;;1.63;0.90;;;;;;;;;;5007209;28;20387;-79
2022/11/22 13:22:31;;;;;;;2.07;1.67;;;;;;;;;;5005831;28;20177;-79
2022/11/22 13:25:08;;;;;;;1.67;0.97;;;;;;;;;;5006325;28;20178;-79
2022/11/22 13:27:35;;;;;;;1.50;1.40;;;;;;;;;;5005493;28;20191;-79
2022/11/22 13:30:00;;;;;;;4.53;1.17;;;;;;;;;;5012840;28;20245;-79
2022/11/22 13:32:30;;;;;;;1.97;1.07;;;;;;;;;;5008076;28;20181;-79
2022/11/22 13:34:58;;;;;;;1.73;0.83;;;;;;;;;;5007082;28;20186;-79
2022/11/22 13:37:24;;;;;;;1.50;1.00;;;;;;;;;;5021701;28;20195;-79
2022/11/22 13:39:49;;;;;;;2.57;0.87;;;;;;;;;;5011913;28;20202;-79
2022/11/22 13:42:27;;;;;;;3.10;1.10;;;;;;;;;;5040320;28;20177;-79
2022/11/22 13:44:52;;;;;;;1.40;0.80;;;;;;;;;;5009310;28;20184;-79
2022/11/22 13:47:34;;;;;;;2.80;0.90;;;;;;;;;;5013673;28;20174;-79
2022/11/22 13:50:00;;;;;;;4.60;3.30;;;;;;;;;;5014816;28;20185;-78
2022/11/22 13:52:26;;;;;;;2.50;1.60;;;;;;;;;;5015608;28;20193;-78
2022/11/22 13:54:52;;;;;;;4.53;1.43;;;;;;;;;;5006432;28;20211;-79
2022/11/22 13:57:26;;;;;;;1.20;1.10;;;;;;;;;;5008631;28;20231;-79
2022/11/22 14:00:10;;;;;;;4.73;1.83;;;;;;;;;;5011091;28;20298;-79
2022/11/22 14:02:36;;;;;;;5.57;1.77;;;;;;;;;;5013811;28;20188;-79
2022/11/22 14:05:01;;;;;;;1.50;1.10;;;;;;;;;;5044455;28;20192;-78
2022/11/22 14:07:37;;;;;;;2.47;1.87;;;;;;;;;;5015030;28;20182;-79
2022/11/22 14:10:04;;;;;;;3.03;0.90;;;;;;;;;;5007747;28;20178;-79
2022/11/22 14:12:50;;;;;;;1.10;0.90;;;;;;;;;;5001972;28;20209;-79
2022/11/22 14:15:34;;;;;;;4.43;1.47;;;;;;;;;;5007974;28;20186;-79
2022/11/22 14:18:02;;;;;;;2.93;1.60;;;;;;;;;;5020905;28;20285;-79
2022/11/22 14:20:33;;;;;;;2.93;0.90;;;;;;;;;;5032714;28;20340;-78
2022/11/22 14:23:17;;;;;;;3.37;1.60;;;;;;;;;;5009908;28;20187;-79
2022/11/22 14:25:42;;;;;;;1.27;1.10;;;;;;;;;;5003804;28;20186;-78
2022/11/22 14:28:16;;;;;;;1.23;1.07;;;;;;;;;;5028800;28;20181;-79
2022/11/22 14:30:41;;;;;;;3.10;1.13;;;;;;;;;;5003897;28;20176;-79
2022/11/22 14:33:17;;;;;;;1.27;0.90;;;;;;;;;;5008416;28;20197;-79
2022/11/22 14:36:01;;;;;;;3.97;2.23;;;;;;;;;;5000768;28;20180;-79
2022/11/22 14:38:28;;;;;;;5.23;3.30;;;;;;;;;;5006915;28;20191;-79
2022/11/22 14:41:13;;;;;;;3.40;1.50;;;;;;;;;;5009734;28;20180;-79
2022/11/22 14:43:39;;;;;;;2.33;1.60;;;;;;;;;;5005334;28;20197;-79
2022/11/22 14:46:10;;;;;;;3.33;2.30;;;;;;;;;;5004842;28;20199;-79
2022/11/22 14:48:59;;;;;;;3.50;1.93;;;;;;;;;;5008418;28;20193;-79
2022/11/22 14:51:29;;;;;;;1.67;1.20;;;;;;;;;;5008881;28;20185;-78
2022/11/22 14:53:55;;;;;;;5.67;2.60;;;;;;;;;;5007631;28;20164;-78
2022/11/22 14:56:26;;;;;;;3.00;2.27;;;;;;;;;;5005688;28;20194;-79